sensor_id;sensor_type;location;lat;lon;timestamp;P1;durP1;ratioP1;P2;durP2;ratioP2
7957;SDS011;4024;52.172;5.378;2023-01-29T00:01:57;25.10;;;16.10;;
7957;SDS011;4024;52.172;5.378;2023-01-29T00:04:22;21.47;;;16.03;;
7957;SDS011;4024;52.172;5.378;2023-01-29T00:06:49;21.40;;;16.27;;
7957;SDS011;4024;52.172;5.378;2023-01-29T00:09:15;20.17;;;15.63;;
7957;SDS011;4024;52.172;5.378;2023-01-29T00:11:41;22.50;;;16.00;;
7957;SDS011;4024;52.172;5.378;2023-01-29T00:14:06;22.67;;;16.17;;
7957;SDS011;4024;52.172;5.378;2023-01-29T00:16:32;20.57;;;15.20;;
7957;SDS011;4024;52.172;5.378;2023-01-29T00:18:59;23.53;;;16.07;;
7957;SDS011;4024;52.172;5.378;2023-01-29T00:21:26;23.83;;;15.73;;
7957;SDS011;4024;52.172;5.378;2023-01-29T00:23:53;20.33;;;14.70;;
7957;SDS011;4024;52.172;5.378;2023-01-29T00:26:20;19.37;;;15.27;;
7957;SDS011;4024;52.172;5.378;2023-01-29T00:28:47;19.73;;;15.03;;
7957;SDS011;4024;52.172;5.378;2023-01-29T00:31:14;20.23;;;15.23;;
7957;SDS011;4024;52.172;5.378;2023-01-29T00:33:44;21.87;;;15.13;;
7957;SDS011;4024;52.172;5.378;2023-01-29T00:36:11;20.00;;;14.27;;
7957;SDS011;4024;52.172;5.378;2023-01-29T00:38:38;22.67;;;15.33;;
7957;SDS011;4024;52.172;5.378;2023-01-29T00:41:08;23.77;;;15.33;;
7957;SDS011;4024;52.172;5.378;2023-01-29T00:43:53;22.77;;;15.90;;
7957;SDS011;4024;52.172;5.378;2023-01-29T00:46:38;21.90;;;15.73;;
7957;SDS011;4024;52.172;5.378;2023-01-29T00:49:04;21.57;;;15.67;;
7957;SDS011;4024;52.172;5.378;2023-01-29T00:51:30;23.37;;;16.50;;
7957;SDS011;4024;52.172;5.378;2023-01-29T00:53:56;21.60;;;16.60;;
7957;SDS011;4024;52.172;5.378;2023-01-29T00:56:25;20.97;;;15.97;;
7957;SDS011;4024;52.172;5.378;2023-01-29T00:58:54;20.63;;;15.67;;
7957;SDS011;4024;52.172;5.378;2023-01-29T01:01:21;20.23;;;15.03;;
7957;SDS011;4024;52.172;5.378;2023-01-29T01:04:06;19.60;;;15.63;;
7957;SDS011;4024;52.172;5.378;2023-01-29T01:06:35;19.93;;;16.23;;
7957;SDS011;4024;52.172;5.378;2023-01-29T01:09:02;21.17;;;15.80;;
7957;SDS011;4024;52.172;5.378;2023-01-29T01:11:48;23.63;;;16.67;;
7957;SDS011;4024;52.172;5.378;2023-01-29T01:14:13;25.53;;;16.63;;
7957;SDS011;4024;52.172;5.378;2023-01-29T01:16:39;22.80;;;16.67;;
7957;SDS011;4024;52.172;5.378;2023-01-29T01:19:05;22.27;;;15.43;;
7957;SDS011;4024;52.172;5.378;2023-01-29T01:21:31;22.30;;;16.03;;
7957;SDS011;4024;52.172;5.378;2023-01-29T01:23:57;22.50;;;16.27;;
7957;SDS011;4024;52.172;5.378;2023-01-29T01:26:23;23.90;;;16.00;;
7957;SDS011;4024;52.172;5.378;2023-01-29T01:28:48;18.80;;;14.63;;
7957;SDS011;4024;52.172;5.378;2023-01-29T01:31:14;22.90;;;16.20;;
7957;SDS011;4024;52.172;5.378;2023-01-29T01:33:40;22.23;;;15.53;;
7957;SDS011;4024;52.172;5.378;2023-01-29T01:36:06;19.83;;;14.97;;
7957;SDS011;4024;52.172;5.378;2023-01-29T01:38:35;18.13;;;13.93;;
7957;SDS011;4024;52.172;5.378;2023-01-29T01:41:08;21.70;;;15.00;;
7957;SDS011;4024;52.172;5.378;2023-01-29T01:43:54;18.07;;;14.17;;
7957;SDS011;4024;52.172;5.378;2023-01-29T01:46:21;19.67;;;15.57;;
7957;SDS011;4024;52.172;5.378;2023-01-29T01:49:10;21.37;;;14.83;;
7957;SDS011;4024;52.172;5.378;2023-01-29T01:51:42;21.33;;;15.03;;
7957;SDS011;4024;52.172;5.378;2023-01-29T01:54:16;21.37;;;15.57;;
7957;SDS011;4024;52.172;5.378;2023-01-29T01:56:48;20.70;;;15.00;;
7957;SDS011;4024;52.172;5.378;2023-01-29T01:59:20;20.87;;;15.33;;
7957;SDS011;4024;52.172;5.378;2023-01-29T02:01:49;20.43;;;16.40;;
7957;SDS011;4024;52.172;5.378;2023-01-29T02:04:21;21.23;;;15.63;;
7957;SDS011;4024;52.172;5.378;2023-01-29T02:07:09;23.40;;;16.90;;
7957;SDS011;4024;52.172;5.378;2023-01-29T02:10:03;22.40;;;16.03;;
7957;SDS011;4024;52.172;5.378;2023-01-29T02:12:33;23.67;;;16.43;;
7957;SDS011;4024;52.172;5.378;2023-01-29T02:15:01;20.00;;;15.53;;
7957;SDS011;4024;52.172;5.378;2023-01-29T02:17:27;22.90;;;16.03;;
7957;SDS011;4024;52.172;5.378;2023-01-29T02:31:43;22.47;;;15.47;;
7957;SDS011;4024;52.172;5.378;2023-01-29T02:39:24;21.90;;;15.00;;
7957;SDS011;4024;52.172;5.378;2023-01-29T02:42:08;20.90;;;16.07;;
7957;SDS011;4024;52.172;5.378;2023-01-29T02:44:49;21.53;;;15.80;;
7957;SDS011;4024;52.172;5.378;2023-01-29T02:47:33;20.27;;;15.47;;
7957;SDS011;4024;52.172;5.378;2023-01-29T02:50:47;25.57;;;16.13;;
7957;SDS011;4024;52.172;5.378;2023-01-29T02:58:32;24.27;;;16.37;;
7957;SDS011;4024;52.172;5.378;2023-01-29T03:01:07;21.93;;;15.77;;
7957;SDS011;4024;52.172;5.378;2023-01-29T03:03:40;21.83;;;17.27;;
7957;SDS011;4024;52.172;5.378;2023-01-29T03:06:29;22.87;;;16.90;;
7957;SDS011;4024;52.172;5.378;2023-01-29T03:08:59;29.30;;;18.33;;
7957;SDS011;4024;52.172;5.378;2023-01-29T03:11:32;24.43;;;18.87;;
7957;SDS011;4024;52.172;5.378;2023-01-29T03:14:11;25.13;;;19.83;;
7957;SDS011;4024;52.172;5.378;2023-01-29T03:16:46;28.67;;;21.50;;
7957;SDS011;4024;52.172;5.378;2023-01-29T03:19:22;27.47;;;21.17;;
7957;SDS011;4024;52.172;5.378;2023-01-29T03:21:56;26.83;;;19.33;;
7957;SDS011;4024;52.172;5.378;2023-01-29T03:24:37;24.20;;;17.70;;
7957;SDS011;4024;52.172;5.378;2023-01-29T03:30:24;24.53;;;17.17;;
7957;SDS011;4024;52.172;5.378;2023-01-29T03:33:13;25.10;;;17.47;;
7957;SDS011;4024;52.172;5.378;2023-01-29T03:35:45;23.13;;;17.03;;
7957;SDS011;4024;52.172;5.378;2023-01-29T03:38:17;24.60;;;18.03;;
7957;SDS011;4024;52.172;5.378;2023-01-29T03:40:49;25.27;;;19.00;;
7957;SDS011;4024;52.172;5.378;2023-01-29T03:43:26;26.07;;;17.77;;
7957;SDS011;4024;52.172;5.378;2023-01-29T03:46:02;27.37;;;18.57;;
7957;SDS011;4024;52.172;5.378;2023-01-29T03:56:20;26.03;;;19.03;;
7957;SDS011;4024;52.172;5.378;2023-01-29T04:04:16;27.63;;;19.50;;
7957;SDS011;4024;52.172;5.378;2023-01-29T04:06:54;26.77;;;19.63;;
7957;SDS011;4024;52.172;5.378;2023-01-29T04:09:29;27.97;;;20.67;;
7957;SDS011;4024;52.172;5.378;2023-01-29T04:12:01;26.40;;;19.60;;
7957;SDS011;4024;52.172;5.378;2023-01-29T04:14:33;26.13;;;20.00;;
7957;SDS011;4024;52.172;5.378;2023-01-29T04:17:01;28.77;;;20.23;;
7957;SDS011;4024;52.172;5.378;2023-01-29T04:19:32;25.50;;;20.17;;
7957;SDS011;4024;52.172;5.378;2023-01-29T04:22:33;26.23;;;20.57;;
7957;SDS011;4024;52.172;5.378;2023-01-29T04:25:03;28.50;;;20.83;;
7957;SDS011;4024;52.172;5.378;2023-01-29T04:30:18;29.33;;;20.07;;
7957;SDS011;4024;52.172;5.378;2023-01-29T04:33:00;27.67;;;19.83;;
7957;SDS011;4024;52.172;5.378;2023-01-29T04:35:52;29.40;;;20.83;;
7957;SDS011;4024;52.172;5.378;2023-01-29T04:41:10;28.37;;;20.00;;
7957;SDS011;4024;52.172;5.378;2023-01-29T04:44:17;29.40;;;21.30;;
7957;SDS011;4024;52.172;5.378;2023-01-29T04:55:29;25.57;;;19.63;;
7957;SDS011;4024;52.172;5.378;2023-01-29T04:58:07;26.10;;;19.80;;
7957;SDS011;4024;52.172;5.378;2023-01-29T05:00:44;28.87;;;20.33;;
7957;SDS011;4024;52.172;5.378;2023-01-29T05:03:14;29.93;;;21.50;;
7957;SDS011;4024;52.172;5.378;2023-01-29T05:05:42;27.43;;;20.17;;
7957;SDS011;4024;52.172;5.378;2023-01-29T05:08:14;28.40;;;20.87;;
7957;SDS011;4024;52.172;5.378;2023-01-29T05:10:43;29.30;;;20.40;;
7957;SDS011;4024;52.172;5.378;2023-01-29T05:13:11;32.33;;;22.00;;
7957;SDS011;4024;52.172;5.378;2023-01-29T05:15:39;30.20;;;20.23;;
7957;SDS011;4024;52.172;5.378;2023-01-29T05:18:09;27.43;;;19.83;;
7957;SDS011;4024;52.172;5.378;2023-01-29T05:20:35;28.77;;;21.07;;
7957;SDS011;4024;52.172;5.378;2023-01-29T05:23:03;29.47;;;20.80;;
7957;SDS011;4024;52.172;5.378;2023-01-29T05:25:30;29.03;;;20.17;;
7957;SDS011;4024;52.172;5.378;2023-01-29T05:27:57;30.13;;;19.93;;
7957;SDS011;4024;52.172;5.378;2023-01-29T05:30:38;28.53;;;19.83;;
7957;SDS011;4024;52.172;5.378;2023-01-29T05:33:04;27.73;;;20.70;;
7957;SDS011;4024;52.172;5.378;2023-01-29T05:36:01;28.47;;;20.50;;
7957;SDS011;4024;52.172;5.378;2023-01-29T05:38:26;28.03;;;20.73;;
7957;SDS011;4024;52.172;5.378;2023-01-29T05:40:52;31.77;;;22.27;;
7957;SDS011;4024;52.172;5.378;2023-01-29T05:43:22;32.87;;;22.03;;
7957;SDS011;4024;52.172;5.378;2023-01-29T05:45:53;28.00;;;20.30;;
7957;SDS011;4024;52.172;5.378;2023-01-29T05:48:23;28.77;;;22.30;;
7957;SDS011;4024;52.172;5.378;2023-01-29T05:50:50;29.90;;;20.70;;
7957;SDS011;4024;52.172;5.378;2023-01-29T05:53:15;28.87;;;20.70;;
7957;SDS011;4024;52.172;5.378;2023-01-29T05:55:45;30.83;;;22.27;;
7957;SDS011;4024;52.172;5.378;2023-01-29T05:58:11;28.40;;;20.77;;
7957;SDS011;4024;52.172;5.378;2023-01-29T06:00:37;29.67;;;20.90;;
7957;SDS011;4024;52.172;5.378;2023-01-29T06:03:03;31.90;;;21.80;;
7957;SDS011;4024;52.172;5.378;2023-01-29T06:05:29;27.40;;;20.83;;
7957;SDS011;4024;52.172;5.378;2023-01-29T06:07:55;29.37;;;21.60;;
7957;SDS011;4024;52.172;5.378;2023-01-29T06:10:20;28.83;;;21.50;;
7957;SDS011;4024;52.172;5.378;2023-01-29T06:12:46;31.70;;;22.33;;
7957;SDS011;4024;52.172;5.378;2023-01-29T06:15:12;27.03;;;21.53;;
7957;SDS011;4024;52.172;5.378;2023-01-29T06:17:39;28.17;;;21.23;;
7957;SDS011;4024;52.172;5.378;2023-01-29T06:20:06;24.13;;;19.97;;
7957;SDS011;4024;52.172;5.378;2023-01-29T06:22:32;32.83;;;22.83;;
7957;SDS011;4024;52.172;5.378;2023-01-29T06:24:58;29.03;;;20.93;;
7957;SDS011;4024;52.172;5.378;2023-01-29T06:27:24;29.83;;;21.67;;
7957;SDS011;4024;52.172;5.378;2023-01-29T06:29:49;27.10;;;20.63;;
7957;SDS011;4024;52.172;5.378;2023-01-29T06:32:15;27.80;;;20.33;;
7957;SDS011;4024;52.172;5.378;2023-01-29T06:34:41;26.83;;;20.10;;
7957;SDS011;4024;52.172;5.378;2023-01-29T06:37:06;32.17;;;21.17;;
7957;SDS011;4024;52.172;5.378;2023-01-29T06:39:32;28.80;;;21.17;;
7957;SDS011;4024;52.172;5.378;2023-01-29T06:41:58;24.50;;;19.37;;
7957;SDS011;4024;52.172;5.378;2023-01-29T06:44:24;24.30;;;19.00;;
7957;SDS011;4024;52.172;5.378;2023-01-29T06:46:50;29.43;;;20.77;;
7957;SDS011;4024;52.172;5.378;2023-01-29T06:49:15;26.50;;;19.97;;
7957;SDS011;4024;52.172;5.378;2023-01-29T06:51:41;30.37;;;20.53;;
7957;SDS011;4024;52.172;5.378;2023-01-29T06:54:08;28.07;;;20.87;;
7957;SDS011;4024;52.172;5.378;2023-01-29T06:56:34;24.33;;;19.27;;
7957;SDS011;4024;52.172;5.378;2023-01-29T06:59:00;31.47;;;21.10;;
7957;SDS011;4024;52.172;5.378;2023-01-29T07:01:26;27.97;;;20.50;;
7957;SDS011;4024;52.172;5.378;2023-01-29T07:03:52;25.00;;;19.70;;
7957;SDS011;4024;52.172;5.378;2023-01-29T07:06:18;23.73;;;19.07;;
7957;SDS011;4024;52.172;5.378;2023-01-29T07:08:44;27.43;;;20.07;;
7957;SDS011;4024;52.172;5.378;2023-01-29T07:11:10;25.63;;;19.87;;
7957;SDS011;4024;52.172;5.378;2023-01-29T07:13:36;28.70;;;20.13;;
7957;SDS011;4024;52.172;5.378;2023-01-29T07:16:02;24.70;;;18.50;;
7957;SDS011;4024;52.172;5.378;2023-01-29T07:18:29;25.90;;;20.83;;
7957;SDS011;4024;52.172;5.378;2023-01-29T07:20:55;26.70;;;20.23;;
7957;SDS011;4024;52.172;5.378;2023-01-29T07:23:22;26.87;;;20.10;;
7957;SDS011;4024;52.172;5.378;2023-01-29T07:25:48;26.07;;;19.97;;
7957;SDS011;4024;52.172;5.378;2023-01-29T07:28:14;24.83;;;19.23;;
7957;SDS011;4024;52.172;5.378;2023-01-29T07:30:44;26.33;;;20.17;;
7957;SDS011;4024;52.172;5.378;2023-01-29T07:33:10;25.17;;;18.50;;
7957;SDS011;4024;52.172;5.378;2023-01-29T07:35:39;24.10;;;19.33;;
7957;SDS011;4024;52.172;5.378;2023-01-29T07:38:07;26.00;;;20.83;;
7957;SDS011;4024;52.172;5.378;2023-01-29T07:40:33;25.70;;;19.40;;
7957;SDS011;4024;52.172;5.378;2023-01-29T07:43:01;27.43;;;19.97;;
7957;SDS011;4024;52.172;5.378;2023-01-29T07:45:28;25.70;;;20.10;;
7957;SDS011;4024;52.172;5.378;2023-01-29T07:47:54;24.40;;;19.33;;
7957;SDS011;4024;52.172;5.378;2023-01-29T07:50:21;25.53;;;18.73;;
7957;SDS011;4024;52.172;5.378;2023-01-29T07:52:47;23.43;;;18.80;;
7957;SDS011;4024;52.172;5.378;2023-01-29T07:55:13;27.67;;;19.73;;
7957;SDS011;4024;52.172;5.378;2023-01-29T07:57:39;25.20;;;18.87;;
7957;SDS011;4024;52.172;5.378;2023-01-29T08:00:07;23.57;;;18.83;;
7957;SDS011;4024;52.172;5.378;2023-01-29T08:02:34;23.30;;;18.77;;
7957;SDS011;4024;52.172;5.378;2023-01-29T08:04:59;26.77;;;19.43;;
7957;SDS011;4024;52.172;5.378;2023-01-29T08:07:25;24.57;;;19.53;;
7957;SDS011;4024;52.172;5.378;2023-01-29T08:09:51;23.10;;;18.13;;
7957;SDS011;4024;52.172;5.378;2023-01-29T08:12:17;25.30;;;18.67;;
7957;SDS011;4024;52.172;5.378;2023-01-29T08:14:43;24.23;;;18.63;;
7957;SDS011;4024;52.172;5.378;2023-01-29T08:17:09;23.70;;;18.43;;
7957;SDS011;4024;52.172;5.378;2023-01-29T08:19:36;23.73;;;18.23;;
7957;SDS011;4024;52.172;5.378;2023-01-29T08:22:02;21.17;;;16.83;;
7957;SDS011;4024;52.172;5.378;2023-01-29T08:24:28;24.37;;;18.30;;
7957;SDS011;4024;52.172;5.378;2023-01-29T08:26:54;24.20;;;17.43;;
7957;SDS011;4024;52.172;5.378;2023-01-29T08:29:20;24.33;;;17.83;;
7957;SDS011;4024;52.172;5.378;2023-01-29T08:31:45;21.93;;;17.13;;
7957;SDS011;4024;52.172;5.378;2023-01-29T08:34:11;24.90;;;18.60;;
7957;SDS011;4024;52.172;5.378;2023-01-29T08:36:36;25.40;;;17.03;;
7957;SDS011;4024;52.172;5.378;2023-01-29T08:39:02;24.17;;;18.00;;
7957;SDS011;4024;52.172;5.378;2023-01-29T08:41:28;23.00;;;17.93;;
7957;SDS011;4024;52.172;5.378;2023-01-29T08:43:53;24.60;;;18.10;;
7957;SDS011;4024;52.172;5.378;2023-01-29T08:46:19;19.30;;;16.20;;
7957;SDS011;4024;52.172;5.378;2023-01-29T08:48:45;22.60;;;17.40;;
7957;SDS011;4024;52.172;5.378;2023-01-29T08:51:11;23.77;;;17.90;;
7957;SDS011;4024;52.172;5.378;2023-01-29T08:53:37;22.77;;;17.43;;
7957;SDS011;4024;52.172;5.378;2023-01-29T08:56:02;22.53;;;17.10;;
7957;SDS011;4024;52.172;5.378;2023-01-29T08:58:28;24.40;;;16.73;;
7957;SDS011;4024;52.172;5.378;2023-01-29T09:00:54;22.67;;;18.07;;
7957;SDS011;4024;52.172;5.378;2023-01-29T09:03:19;23.07;;;17.00;;
7957;SDS011;4024;52.172;5.378;2023-01-29T09:05:45;22.73;;;16.93;;
7957;SDS011;4024;52.172;5.378;2023-01-29T09:08:12;24.03;;;17.67;;
7957;SDS011;4024;52.172;5.378;2023-01-29T09:10:37;20.40;;;16.77;;
7957;SDS011;4024;52.172;5.378;2023-01-29T09:13:03;26.77;;;18.73;;
7957;SDS011;4024;52.172;5.378;2023-01-29T09:15:29;23.07;;;17.90;;
7957;SDS011;4024;52.172;5.378;2023-01-29T09:17:55;25.37;;;18.17;;
7957;SDS011;4024;52.172;5.378;2023-01-29T09:20:20;21.37;;;16.67;;
7957;SDS011;4024;52.172;5.378;2023-01-29T09:22:46;24.03;;;17.60;;
7957;SDS011;4024;52.172;5.378;2023-01-29T09:25:13;24.40;;;18.57;;
7957;SDS011;4024;52.172;5.378;2023-01-29T09:27:39;26.17;;;18.03;;
7957;SDS011;4024;52.172;5.378;2023-01-29T09:30:05;22.60;;;17.27;;
7957;SDS011;4024;52.172;5.378;2023-01-29T09:32:32;23.70;;;17.77;;
7957;SDS011;4024;52.172;5.378;2023-01-29T09:34:58;22.93;;;17.23;;
7957;SDS011;4024;52.172;5.378;2023-01-29T09:37:24;23.93;;;17.23;;
7957;SDS011;4024;52.172;5.378;2023-01-29T09:39:50;23.93;;;17.40;;
7957;SDS011;4024;52.172;5.378;2023-01-29T09:45:02;23.57;;;17.67;;
7957;SDS011;4024;52.172;5.378;2023-01-29T09:47:34;23.50;;;17.27;;
7957;SDS011;4024;52.172;5.378;2023-01-29T09:52:34;23.00;;;17.87;;
7957;SDS011;4024;52.172;5.378;2023-01-29T09:57:59;23.53;;;16.87;;
7957;SDS011;4024;52.172;5.378;2023-01-29T10:04:01;24.80;;;18.07;;
7957;SDS011;4024;52.172;5.378;2023-01-29T10:10:05;21.97;;;17.80;;
7957;SDS011;4024;52.172;5.378;2023-01-29T10:15:34;24.00;;;17.73;;
7957;SDS011;4024;52.172;5.378;2023-01-29T10:18:13;22.73;;;17.70;;
7957;SDS011;4024;52.172;5.378;2023-01-29T10:26:52;24.73;;;19.43;;
7957;SDS011;4024;52.172;5.378;2023-01-29T10:29:20;25.07;;;18.73;;
7957;SDS011;4024;52.172;5.378;2023-01-29T10:31:48;23.43;;;17.93;;
7957;SDS011;4024;52.172;5.378;2023-01-29T10:36:56;25.67;;;19.47;;
7957;SDS011;4024;52.172;5.378;2023-01-29T10:39:22;26.47;;;19.50;;
7957;SDS011;4024;52.172;5.378;2023-01-29T11:00:48;26.80;;;19.63;;
7957;SDS011;4024;52.172;5.378;2023-01-29T11:03:18;26.43;;;20.50;;
7957;SDS011;4024;52.172;5.378;2023-01-29T11:05:54;27.20;;;20.90;;
7957;SDS011;4024;52.172;5.378;2023-01-29T11:08:25;23.63;;;19.70;;
7957;SDS011;4024;52.172;5.378;2023-01-29T11:11:07;27.37;;;19.93;;
7957;SDS011;4024;52.172;5.378;2023-01-29T11:13:39;26.23;;;21.03;;
7957;SDS011;4024;52.172;5.378;2023-01-29T11:16:08;27.30;;;20.57;;
7957;SDS011;4024;52.172;5.378;2023-01-29T11:18:51;26.67;;;20.17;;
7957;SDS011;4024;52.172;5.378;2023-01-29T11:21:21;31.30;;;21.63;;
7957;SDS011;4024;52.172;5.378;2023-01-29T11:23:48;29.77;;;21.07;;
7957;SDS011;4024;52.172;5.378;2023-01-29T11:26:19;27.03;;;21.37;;
7957;SDS011;4024;52.172;5.378;2023-01-29T11:28:48;27.23;;;20.37;;
7957;SDS011;4024;52.172;5.378;2023-01-29T11:31:15;29.57;;;21.97;;
7957;SDS011;4024;52.172;5.378;2023-01-29T11:34:15;28.30;;;21.43;;
7957;SDS011;4024;52.172;5.378;2023-01-29T11:36:44;31.67;;;21.43;;
7957;SDS011;4024;52.172;5.378;2023-01-29T11:41:43;29.77;;;22.07;;
7957;SDS011;4024;52.172;5.378;2023-01-29T11:44:19;28.10;;;20.87;;
7957;SDS011;4024;52.172;5.378;2023-01-29T11:46:52;30.27;;;22.20;;
7957;SDS011;4024;52.172;5.378;2023-01-29T11:49:36;27.03;;;21.50;;
7957;SDS011;4024;52.172;5.378;2023-01-29T11:52:04;29.33;;;22.33;;
7957;SDS011;4024;52.172;5.378;2023-01-29T11:55:06;31.27;;;22.73;;
7957;SDS011;4024;52.172;5.378;2023-01-29T11:57:37;31.20;;;21.77;;
7957;SDS011;4024;52.172;5.378;2023-01-29T12:00:09;34.67;;;23.23;;
7957;SDS011;4024;52.172;5.378;2023-01-29T12:02:46;31.70;;;23.63;;
7957;SDS011;4024;52.172;5.378;2023-01-29T12:05:17;31.83;;;24.33;;
7957;SDS011;4024;52.172;5.378;2023-01-29T12:07:46;32.60;;;24.23;;
7957;SDS011;4024;52.172;5.378;2023-01-29T12:10:33;31.93;;;23.77;;
7957;SDS011;4024;52.172;5.378;2023-01-29T12:15:33;32.60;;;24.07;;
7957;SDS011;4024;52.172;5.378;2023-01-29T12:18:02;33.37;;;25.27;;
7957;SDS011;4024;52.172;5.378;2023-01-29T12:20:43;34.67;;;25.63;;
7957;SDS011;4024;52.172;5.378;2023-01-29T12:29:23;34.33;;;24.97;;
7957;SDS011;4024;52.172;5.378;2023-01-29T12:32:10;35.80;;;25.03;;
7957;SDS011;4024;52.172;5.378;2023-01-29T12:34:48;33.50;;;25.80;;
7957;SDS011;4024;52.172;5.378;2023-01-29T12:39:52;33.03;;;24.23;;
7957;SDS011;4024;52.172;5.378;2023-01-29T12:42:19;34.80;;;25.53;;
7957;SDS011;4024;52.172;5.378;2023-01-29T12:44:51;32.00;;;25.60;;
7957;SDS011;4024;52.172;5.378;2023-01-29T12:50:16;34.13;;;25.47;;
7957;SDS011;4024;52.172;5.378;2023-01-29T12:52:52;36.00;;;25.03;;
7957;SDS011;4024;52.172;5.378;2023-01-29T12:55:31;33.17;;;24.90;;
7957;SDS011;4024;52.172;5.378;2023-01-29T12:58:08;32.30;;;25.07;;
7957;SDS011;4024;52.172;5.378;2023-01-29T13:00:42;33.60;;;24.77;;
7957;SDS011;4024;52.172;5.378;2023-01-29T13:03:16;37.90;;;26.63;;
7957;SDS011;4024;52.172;5.378;2023-01-29T13:05:56;35.30;;;25.43;;
7957;SDS011;4024;52.172;5.378;2023-01-29T13:08:38;34.77;;;24.63;;
7957;SDS011;4024;52.172;5.378;2023-01-29T13:11:13;32.93;;;24.93;;
7957;SDS011;4024;52.172;5.378;2023-01-29T13:13:52;34.03;;;24.37;;
7957;SDS011;4024;52.172;5.378;2023-01-29T13:16:36;33.53;;;24.90;;
7957;SDS011;4024;52.172;5.378;2023-01-29T13:19:27;34.70;;;26.37;;
7957;SDS011;4024;52.172;5.378;2023-01-29T13:22:01;31.27;;;24.23;;
7957;SDS011;4024;52.172;5.378;2023-01-29T13:24:32;35.87;;;24.67;;
7957;SDS011;4024;52.172;5.378;2023-01-29T13:27:15;34.07;;;25.43;;
7957;SDS011;4024;52.172;5.378;2023-01-29T13:29:46;37.17;;;26.43;;
7957;SDS011;4024;52.172;5.378;2023-01-29T13:32:17;33.47;;;24.70;;
7957;SDS011;4024;52.172;5.378;2023-01-29T13:34:54;33.63;;;24.53;;
7957;SDS011;4024;52.172;5.378;2023-01-29T13:37:36;30.77;;;24.50;;
7957;SDS011;4024;52.172;5.378;2023-01-29T13:40:07;33.50;;;25.70;;
7957;SDS011;4024;52.172;5.378;2023-01-29T13:42:46;31.70;;;25.20;;
7957;SDS011;4024;52.172;5.378;2023-01-29T13:45:17;32.33;;;25.43;;
7957;SDS011;4024;52.172;5.378;2023-01-29T13:47:46;32.87;;;24.27;;
7957;SDS011;4024;52.172;5.378;2023-01-29T13:50:18;31.33;;;24.33;;
7957;SDS011;4024;52.172;5.378;2023-01-29T13:58:07;30.73;;;24.43;;
7957;SDS011;4024;52.172;5.378;2023-01-29T14:05:44;31.67;;;24.23;;
7957;SDS011;4024;52.172;5.378;2023-01-29T14:13:43;32.37;;;23.70;;
7957;SDS011;4024;52.172;5.378;2023-01-29T14:18:44;27.93;;;23.30;;
7957;SDS011;4024;52.172;5.378;2023-01-29T14:23:47;31.17;;;23.10;;
7957;SDS011;4024;52.172;5.378;2023-01-29T14:26:28;27.83;;;22.70;;
7957;SDS011;4024;52.172;5.378;2023-01-29T14:31:34;33.67;;;23.40;;
7957;SDS011;4024;52.172;5.378;2023-01-29T14:34:01;29.00;;;21.90;;
7957;SDS011;4024;52.172;5.378;2023-01-29T14:36:37;27.40;;;22.00;;
7957;SDS011;4024;52.172;5.378;2023-01-29T14:39:17;30.27;;;22.87;;
7957;SDS011;4024;52.172;5.378;2023-01-29T14:41:48;26.87;;;20.97;;
7957;SDS011;4024;52.172;5.378;2023-01-29T14:50:00;29.70;;;22.63;;
7957;SDS011;4024;52.172;5.378;2023-01-29T14:52:46;28.03;;;21.77;;
7957;SDS011;4024;52.172;5.378;2023-01-29T14:55:23;31.43;;;22.43;;
7957;SDS011;4024;52.172;5.378;2023-01-29T14:57:54;27.90;;;22.40;;
7957;SDS011;4024;52.172;5.378;2023-01-29T15:00:37;26.17;;;21.27;;
7957;SDS011;4024;52.172;5.378;2023-01-29T15:03:50;30.10;;;21.67;;
7957;SDS011;4024;52.172;5.378;2023-01-29T15:06:08;28.57;;;21.97;;
7957;SDS011;4024;52.172;5.378;2023-01-29T15:08:44;26.93;;;21.30;;
7957;SDS011;4024;52.172;5.378;2023-01-29T15:11:29;27.30;;;21.43;;
7957;SDS011;4024;52.172;5.378;2023-01-29T15:14:21;27.20;;;21.43;;
7957;SDS011;4024;52.172;5.378;2023-01-29T15:20:23;26.80;;;20.67;;
7957;SDS011;4024;52.172;5.378;2023-01-29T15:25:55;27.23;;;20.43;;
7957;SDS011;4024;52.172;5.378;2023-01-29T15:28:25;30.10;;;22.90;;
7957;SDS011;4024;52.172;5.378;2023-01-29T15:30:55;29.67;;;23.03;;
7957;SDS011;4024;52.172;5.378;2023-01-29T15:33:23;26.70;;;20.67;;
7957;SDS011;4024;52.172;5.378;2023-01-29T15:35:49;26.30;;;20.83;;
7957;SDS011;4024;52.172;5.378;2023-01-29T15:38:21;24.67;;;19.40;;
7957;SDS011;4024;52.172;5.378;2023-01-29T15:40:56;26.93;;;20.37;;
7957;SDS011;4024;52.172;5.378;2023-01-29T15:43:36;28.63;;;21.43;;
7957;SDS011;4024;52.172;5.378;2023-01-29T15:46:10;29.07;;;21.77;;
7957;SDS011;4024;52.172;5.378;2023-01-29T15:48:43;29.97;;;22.27;;
7957;SDS011;4024;52.172;5.378;2023-01-29T15:51:11;30.07;;;21.30;;
7957;SDS011;4024;52.172;5.378;2023-01-29T15:53:41;27.37;;;21.67;;
7957;SDS011;4024;52.172;5.378;2023-01-29T15:56:13;30.73;;;22.17;;
7957;SDS011;4024;52.172;5.378;2023-01-29T15:58:42;27.40;;;20.53;;
7957;SDS011;4024;52.172;5.378;2023-01-29T16:01:12;29.40;;;20.47;;
7957;SDS011;4024;52.172;5.378;2023-01-29T16:03:38;27.13;;;19.93;;
7957;SDS011;4024;52.172;5.378;2023-01-29T16:06:04;26.83;;;20.83;;
7957;SDS011;4024;52.172;5.378;2023-01-29T16:08:31;25.60;;;20.30;;
7957;SDS011;4024;52.172;5.378;2023-01-29T16:11:01;27.60;;;19.97;;
7957;SDS011;4024;52.172;5.378;2023-01-29T16:13:29;26.63;;;20.13;;
7957;SDS011;4024;52.172;5.378;2023-01-29T16:16:03;26.97;;;20.10;;
7957;SDS011;4024;52.172;5.378;2023-01-29T16:18:38;26.77;;;20.37;;
7957;SDS011;4024;52.172;5.378;2023-01-29T16:21:28;24.80;;;19.93;;
7957;SDS011;4024;52.172;5.378;2023-01-29T16:23:58;26.80;;;20.47;;
7957;SDS011;4024;52.172;5.378;2023-01-29T16:26:35;26.67;;;20.30;;
7957;SDS011;4024;52.172;5.378;2023-01-29T16:29:07;32.43;;;21.87;;
7957;SDS011;4024;52.172;5.378;2023-01-29T16:31:35;26.73;;;20.33;;
7957;SDS011;4024;52.172;5.378;2023-01-29T16:34:37;29.23;;;21.57;;
7957;SDS011;4024;52.172;5.378;2023-01-29T16:37:02;31.00;;;22.13;;
7957;SDS011;4024;52.172;5.378;2023-01-29T16:39:34;29.97;;;21.27;;
7957;SDS011;4024;52.172;5.378;2023-01-29T16:44:51;30.63;;;21.60;;
7957;SDS011;4024;52.172;5.378;2023-01-29T16:47:29;31.90;;;21.53;;
7957;SDS011;4024;52.172;5.378;2023-01-29T16:50:21;29.67;;;20.40;;
7957;SDS011;4024;52.172;5.378;2023-01-29T16:55:38;30.77;;;21.60;;
7957;SDS011;4024;52.172;5.378;2023-01-29T16:58:12;28.80;;;21.60;;
7957;SDS011;4024;52.172;5.378;2023-01-29T17:01:14;31.27;;;22.07;;
7957;SDS011;4024;52.172;5.378;2023-01-29T17:03:34;29.90;;;21.97;;
7957;SDS011;4024;52.172;5.378;2023-01-29T17:06:11;30.23;;;22.27;;
7957;SDS011;4024;52.172;5.378;2023-01-29T17:08:45;31.07;;;22.50;;
7957;SDS011;4024;52.172;5.378;2023-01-29T17:11:11;33.73;;;24.10;;
7957;SDS011;4024;52.172;5.378;2023-01-29T17:13:47;29.93;;;22.13;;
7957;SDS011;4024;52.172;5.378;2023-01-29T17:18:53;32.97;;;23.00;;
7957;SDS011;4024;52.172;5.378;2023-01-29T17:21:19;30.67;;;21.97;;
7957;SDS011;4024;52.172;5.378;2023-01-29T17:23:45;32.47;;;22.73;;
7957;SDS011;4024;52.172;5.378;2023-01-29T17:26:11;34.50;;;23.63;;
7957;SDS011;4024;52.172;5.378;2023-01-29T17:28:38;34.80;;;23.67;;
7957;SDS011;4024;52.172;5.378;2023-01-29T17:31:05;31.37;;;23.27;;
7957;SDS011;4024;52.172;5.378;2023-01-29T17:33:34;33.20;;;22.67;;
7957;SDS011;4024;52.172;5.378;2023-01-29T17:36:03;31.03;;;22.63;;
7957;SDS011;4024;52.172;5.378;2023-01-29T17:38:29;35.30;;;24.10;;
7957;SDS011;4024;52.172;5.378;2023-01-29T17:41:15;32.73;;;23.70;;
7957;SDS011;4024;52.172;5.378;2023-01-29T17:43:47;33.80;;;23.73;;
7957;SDS011;4024;52.172;5.378;2023-01-29T17:46:13;33.40;;;23.83;;
7957;SDS011;4024;52.172;5.378;2023-01-29T17:48:40;34.20;;;22.83;;
7957;SDS011;4024;52.172;5.378;2023-01-29T17:51:08;37.83;;;24.60;;
7957;SDS011;4024;52.172;5.378;2023-01-29T17:53:39;33.57;;;23.73;;